sensor_id;sensor_type;location;lat;lon;timestamp;P1;durP1;ratioP1;P2;durP2;ratioP2
25905;SDS011;13713;52.552;13.204;2022-08-14T00:01:23;20.17;;;18.15;;
25905;SDS011;13713;52.552;13.204;2022-08-14T00:03:49;19.92;;;17.90;;
25905;SDS011;13713;52.552;13.204;2022-08-14T00:06:14;21.00;;;18.90;;
25905;SDS011;13713;52.552;13.204;2022-08-14T00:08:40;20.50;;;18.35;;
25905;SDS011;13713;52.552;13.204;2022-08-14T00:11:06;20.35;;;18.35;;
25905;SDS011;13713;52.552;13.204;2022-08-14T00:13:32;20.10;;;18.10;;
25905;SDS011;13713;52.552;13.204;2022-08-14T00:15:58;19.48;;;17.58;;
25905;SDS011;13713;52.552;13.204;2022-08-14T00:18:25;20.88;;;18.67;;
25905;SDS011;13713;52.552;13.204;2022-08-14T00:20:52;20.98;;;18.45;;
25905;SDS011;13713;52.552;13.204;2022-08-14T00:23:19;20.30;;;18.30;;
25905;SDS011;13713;52.552;13.204;2022-08-14T00:25:46;19.85;;;17.77;;
25905;SDS011;13713;52.552;13.204;2022-08-14T00:28:15;19.70;;;17.70;;
25905;SDS011;13713;52.552;13.204;2022-08-14T00:30:41;21.10;;;19.00;;
25905;SDS011;13713;52.552;13.204;2022-08-14T00:33:07;20.38;;;18.33;;
25905;SDS011;13713;52.552;13.204;2022-08-14T00:35:33;21.02;;;18.90;;
25905;SDS011;13713;52.552;13.204;2022-08-14T00:37:59;20.38;;;18.35;;
25905;SDS011;13713;52.552;13.204;2022-08-14T00:40:25;20.50;;;18.40;;
25905;SDS011;13713;52.552;13.204;2022-08-14T00:42:51;20.55;;;18.55;;
25905;SDS011;13713;52.552;13.204;2022-08-14T00:45:17;21.10;;;18.92;;
25905;SDS011;13713;52.552;13.204;2022-08-14T00:47:43;20.13;;;18.05;;
25905;SDS011;13713;52.552;13.204;2022-08-14T00:50:12;19.70;;;17.70;;
25905;SDS011;13713;52.552;13.204;2022-08-14T00:52:39;21.23;;;17.73;;
25905;SDS011;13713;52.552;13.204;2022-08-14T00:55:06;20.95;;;18.75;;
25905;SDS011;13713;52.552;13.204;2022-08-14T00:57:33;20.88;;;18.58;;
25905;SDS011;13713;52.552;13.204;2022-08-14T01:00:00;19.10;;;17.25;;
25905;SDS011;13713;52.552;13.204;2022-08-14T01:02:28;20.73;;;18.52;;
25905;SDS011;13713;52.552;13.204;2022-08-14T01:04:55;20.67;;;18.50;;
25905;SDS011;13713;52.552;13.204;2022-08-14T01:07:23;20.05;;;17.95;;
25905;SDS011;13713;52.552;13.204;2022-08-14T01:09:50;19.80;;;17.80;;
25905;SDS011;13713;52.552;13.204;2022-08-14T01:12:21;19.52;;;17.63;;
25905;SDS011;13713;52.552;13.204;2022-08-14T01:14:49;18.85;;;16.95;;
25905;SDS011;13713;52.552;13.204;2022-08-14T01:17:17;19.70;;;17.75;;
25905;SDS011;13713;52.552;13.204;2022-08-14T01:19:43;19.90;;;17.83;;
25905;SDS011;13713;52.552;13.204;2022-08-14T01:22:27;20.50;;;18.40;;
25905;SDS011;13713;52.552;13.204;2022-08-14T01:24:54;20.42;;;18.27;;
25905;SDS011;13713;52.552;13.204;2022-08-14T01:27:21;19.50;;;17.52;;
25905;SDS011;13713;52.552;13.204;2022-08-14T01:29:49;20.23;;;18.15;;
25905;SDS011;13713;52.552;13.204;2022-08-14T01:32:17;19.38;;;17.38;;
25905;SDS011;13713;52.552;13.204;2022-08-14T01:34:49;20.10;;;18.02;;
25905;SDS011;13713;52.552;13.204;2022-08-14T01:37:19;20.10;;;18.00;;
25905;SDS011;13713;52.552;13.204;2022-08-14T01:39:50;19.40;;;17.42;;
25905;SDS011;13713;52.552;13.204;2022-08-14T01:42:17;20.13;;;18.13;;
25905;SDS011;13713;52.552;13.204;2022-08-14T01:44:42;19.50;;;17.50;;
25905;SDS011;13713;52.552;13.204;2022-08-14T01:47:15;19.05;;;17.15;;
25905;SDS011;13713;52.552;13.204;2022-08-14T01:49:43;20.05;;;17.95;;
25905;SDS011;13713;52.552;13.204;2022-08-14T01:52:09;20.48;;;18.38;;
25905;SDS011;13713;52.552;13.204;2022-08-14T01:54:37;19.70;;;17.70;;
25905;SDS011;13713;52.552;13.204;2022-08-14T01:57:03;18.90;;;17.00;;
25905;SDS011;13713;52.552;13.204;2022-08-14T01:59:35;20.48;;;18.38;;
25905;SDS011;13713;52.552;13.204;2022-08-14T02:02:04;18.75;;;16.85;;
25905;SDS011;13713;52.552;13.204;2022-08-14T02:04:36;18.60;;;16.80;;
25905;SDS011;13713;52.552;13.204;2022-08-14T02:07:03;18.63;;;16.75;;
25905;SDS011;13713;52.552;13.204;2022-08-14T02:09:30;20.67;;;18.63;;
25905;SDS011;13713;52.552;13.204;2022-08-14T02:11:59;19.85;;;17.85;;
25905;SDS011;13713;52.552;13.204;2022-08-14T02:14:26;20.27;;;18.17;;
25905;SDS011;13713;52.552;13.204;2022-08-14T02:16:53;20.38;;;18.27;;
25905;SDS011;13713;52.552;13.204;2022-08-14T02:19:22;19.15;;;17.33;;
25905;SDS011;13713;52.552;13.204;2022-08-14T02:21:53;20.45;;;18.35;;
25905;SDS011;13713;52.552;13.204;2022-08-14T02:24:21;18.05;;;16.27;;
25905;SDS011;13713;52.552;13.204;2022-08-14T02:26:48;19.58;;;17.58;;
25905;SDS011;13713;52.552;13.204;2022-08-14T02:29:16;19.13;;;17.13;;
25905;SDS011;13713;52.552;13.204;2022-08-14T02:31:46;20.02;;;17.92;;
25905;SDS011;13713;52.552;13.204;2022-08-14T02:34:31;19.73;;;17.63;;
25905;SDS011;13713;52.552;13.204;2022-08-14T02:37:06;20.50;;;18.40;;
25905;SDS011;13713;52.552;13.204;2022-08-14T02:39:36;18.83;;;16.98;;
25905;SDS011;13713;52.552;13.204;2022-08-14T02:42:04;19.88;;;17.88;;
25905;SDS011;13713;52.552;13.204;2022-08-14T02:44:32;20.08;;;18.08;;
25905;SDS011;13713;52.552;13.204;2022-08-14T02:46:59;20.05;;;18.05;;
25905;SDS011;13713;52.552;13.204;2022-08-14T02:49:25;19.27;;;17.35;;
25905;SDS011;13713;52.552;13.204;2022-08-14T02:51:56;21.05;;;18.95;;
25905;SDS011;13713;52.552;13.204;2022-08-14T02:54:22;20.27;;;18.27;;
25905;SDS011;13713;52.552;13.204;2022-08-14T02:56:50;19.55;;;17.58;;
25905;SDS011;13713;52.552;13.204;2022-08-14T02:59:18;19.27;;;17.27;;
25905;SDS011;13713;52.552;13.204;2022-08-14T03:01:45;20.55;;;18.45;;
25905;SDS011;13713;52.552;13.204;2022-08-14T03:04:12;20.42;;;18.30;;
25905;SDS011;13713;52.552;13.204;2022-08-14T03:06:38;19.92;;;17.92;;
25905;SDS011;13713;52.552;13.204;2022-08-14T03:09:07;20.58;;;18.50;;
25905;SDS011;13713;52.552;13.204;2022-08-14T03:11:35;20.70;;;18.50;;
25905;SDS011;13713;52.552;13.204;2022-08-14T03:14:01;19.23;;;17.23;;
25905;SDS011;13713;52.552;13.204;2022-08-14T03:16:29;20.13;;;18.05;;
25905;SDS011;13713;52.552;13.204;2022-08-14T03:19:00;19.80;;;17.77;;
25905;SDS011;13713;52.552;13.204;2022-08-14T03:21:26;20.65;;;18.50;;
25905;SDS011;13713;52.552;13.204;2022-08-14T03:23:55;19.88;;;17.88;;
25905;SDS011;13713;52.552;13.204;2022-08-14T03:26:40;20.95;;;18.58;;
25905;SDS011;13713;52.552;13.204;2022-08-14T03:29:07;20.45;;;18.35;;
25905;SDS011;13713;52.552;13.204;2022-08-14T03:31:34;19.73;;;17.75;;
25905;SDS011;13713;52.552;13.204;2022-08-14T03:34:00;19.30;;;17.15;;
25905;SDS011;13713;52.552;13.204;2022-08-14T03:36:28;21.05;;;18.95;;
25905;SDS011;13713;52.552;13.204;2022-08-14T03:38:57;19.48;;;17.48;;
25905;SDS011;13713;52.552;13.204;2022-08-14T03:41:24;19.75;;;17.73;;
25905;SDS011;13713;52.552;13.204;2022-08-14T03:43:53;19.10;;;17.20;;
25905;SDS011;13713;52.552;13.204;2022-08-14T03:46:21;19.42;;;17.42;;
25905;SDS011;13713;52.552;13.204;2022-08-14T03:48:47;19.67;;;17.67;;
25905;SDS011;13713;52.552;13.204;2022-08-14T03:51:14;19.75;;;17.75;;
25905;SDS011;13713;52.552;13.204;2022-08-14T03:53:41;19.27;;;17.38;;
25905;SDS011;13713;52.552;13.204;2022-08-14T03:56:09;20.70;;;18.60;;
25905;SDS011;13713;52.552;13.204;2022-08-14T03:58:38;20.83;;;18.73;;
25905;SDS011;13713;52.552;13.204;2022-08-14T04:01:06;19.13;;;17.13;;
25905;SDS011;13713;52.552;13.204;2022-08-14T04:03:33;21.23;;;18.42;;
25905;SDS011;13713;52.552;13.204;2022-08-14T04:06:00;20.42;;;18.35;;
25905;SDS011;13713;52.552;13.204;2022-08-14T04:08:26;19.63;;;17.63;;
25905;SDS011;13713;52.552;13.204;2022-08-14T04:10:53;19.95;;;17.88;;
25905;SDS011;13713;52.552;13.204;2022-08-14T04:13:20;20.10;;;18.10;;
25905;SDS011;13713;52.552;13.204;2022-08-14T04:15:46;20.08;;;18.08;;
25905;SDS011;13713;52.552;13.204;2022-08-14T04:18:12;18.40;;;16.58;;
25905;SDS011;13713;52.552;13.204;2022-08-14T04:20:39;20.35;;;18.25;;
25905;SDS011;13713;52.552;13.204;2022-08-14T04:23:06;20.08;;;18.05;;
25905;SDS011;13713;52.552;13.204;2022-08-14T04:25:33;20.42;;;18.33;;
25905;SDS011;13713;52.552;13.204;2022-08-14T04:28:00;19.88;;;17.88;;
25905;SDS011;13713;52.552;13.204;2022-08-14T04:30:28;20.50;;;18.42;;
25905;SDS011;13713;52.552;13.204;2022-08-14T04:32:56;19.98;;;17.90;;
25905;SDS011;13713;52.552;13.204;2022-08-14T04:35:23;20.67;;;18.58;;
25905;SDS011;13713;52.552;13.204;2022-08-14T04:37:48;20.58;;;18.45;;
25905;SDS011;13713;52.552;13.204;2022-08-14T04:40:32;20.90;;;18.85;;
25905;SDS011;13713;52.552;13.204;2022-08-14T04:43:16;20.73;;;18.63;;
25905;SDS011;13713;52.552;13.204;2022-08-14T04:46:04;21.02;;;18.83;;
25905;SDS011;13713;52.552;13.204;2022-08-14T04:48:31;20.38;;;18.25;;
25905;SDS011;13713;52.552;13.204;2022-08-14T04:50:57;21.08;;;18.77;;
25905;SDS011;13713;52.552;13.204;2022-08-14T04:53:24;19.30;;;17.27;;
25905;SDS011;13713;52.552;13.204;2022-08-14T04:55:53;19.77;;;17.67;;
25905;SDS011;13713;52.552;13.204;2022-08-14T04:58:24;20.55;;;18.45;;
25905;SDS011;13713;52.552;13.204;2022-08-14T05:00:52;20.65;;;18.50;;
25905;SDS011;13713;52.552;13.204;2022-08-14T05:03:23;20.45;;;18.40;;
25905;SDS011;13713;52.552;13.204;2022-08-14T05:05:52;20.05;;;18.02;;
25905;SDS011;13713;52.552;13.204;2022-08-14T05:08:21;20.50;;;18.40;;
25905;SDS011;13713;52.552;13.204;2022-08-14T05:10:48;21.30;;;19.15;;
25905;SDS011;13713;52.552;13.204;2022-08-14T05:13:20;20.08;;;18.00;;
25905;SDS011;13713;52.552;13.204;2022-08-14T05:15:47;21.23;;;18.88;;
25905;SDS011;13713;52.552;13.204;2022-08-14T05:18:15;19.70;;;17.70;;
25905;SDS011;13713;52.552;13.204;2022-08-14T05:20:43;20.30;;;18.10;;
25905;SDS011;13713;52.552;13.204;2022-08-14T05:23:11;19.73;;;17.73;;
25905;SDS011;13713;52.552;13.204;2022-08-14T05:25:38;21.42;;;19.23;;
25905;SDS011;13713;52.552;13.204;2022-08-14T05:28:12;20.33;;;18.20;;
25905;SDS011;13713;52.552;13.204;2022-08-14T05:30:43;21.40;;;19.20;;
25905;SDS011;13713;52.552;13.204;2022-08-14T05:33:11;20.48;;;18.33;;
25905;SDS011;13713;52.552;13.204;2022-08-14T05:35:38;20.80;;;18.30;;
25905;SDS011;13713;52.552;13.204;2022-08-14T05:38:08;20.25;;;18.15;;
25905;SDS011;13713;52.552;13.204;2022-08-14T05:40:36;20.80;;;18.70;;
25905;SDS011;13713;52.552;13.204;2022-08-14T05:43:01;19.40;;;17.42;;
25905;SDS011;13713;52.552;13.204;2022-08-14T05:45:27;19.00;;;17.10;;
25905;SDS011;13713;52.552;13.204;2022-08-14T05:47:53;19.83;;;17.83;;
25905;SDS011;13713;52.552;13.204;2022-08-14T05:50:19;20.63;;;18.48;;
25905;SDS011;13713;52.552;13.204;2022-08-14T05:52:45;20.85;;;18.75;;
25905;SDS011;13713;52.552;13.204;2022-08-14T05:55:12;20.52;;;18.33;;
25905;SDS011;13713;52.552;13.204;2022-08-14T05:58:12;21.40;;;19.20;;
25905;SDS011;13713;52.552;13.204;2022-08-14T06:00:33;19.63;;;17.63;;
25905;SDS011;13713;52.552;13.204;2022-08-14T06:03:00;23.55;;;19.73;;
25905;SDS011;13713;52.552;13.204;2022-08-14T06:05:28;21.35;;;19.17;;
25905;SDS011;13713;52.552;13.204;2022-08-14T06:07:55;20.33;;;18.25;;
25905;SDS011;13713;52.552;13.204;2022-08-14T06:10:22;21.52;;;19.33;;
25905;SDS011;13713;52.552;13.204;2022-08-14T06:12:48;21.15;;;19.02;;
25905;SDS011;13713;52.552;13.204;2022-08-14T06:15:14;20.95;;;18.83;;
25905;SDS011;13713;52.552;13.204;2022-08-14T06:17:43;20.95;;;18.95;;
25905;SDS011;13713;52.552;13.204;2022-08-14T06:20:11;21.30;;;18.35;;
25905;SDS011;13713;52.552;13.204;2022-08-14T06:22:38;21.80;;;19.60;;
25905;SDS011;13713;52.552;13.204;2022-08-14T06:25:07;20.08;;;18.08;;
25905;SDS011;13713;52.552;13.204;2022-08-14T06:27:38;21.83;;;19.52;;
25905;SDS011;13713;52.552;13.204;2022-08-14T06:30:06;21.42;;;18.63;;
25905;SDS011;13713;52.552;13.204;2022-08-14T06:32:33;21.25;;;19.13;;
25905;SDS011;13713;52.552;13.204;2022-08-14T06:35:00;21.25;;;19.10;;
25905;SDS011;13713;52.552;13.204;2022-08-14T06:37:26;20.85;;;18.67;;
25905;SDS011;13713;52.552;13.204;2022-08-14T06:39:52;20.20;;;18.00;;
25905;SDS011;13713;52.552;13.204;2022-08-14T06:42:18;20.88;;;18.70;;
25905;SDS011;13713;52.552;13.204;2022-08-14T06:44:44;21.55;;;19.30;;
25905;SDS011;13713;52.552;13.204;2022-08-14T06:47:10;20.77;;;18.67;;
25905;SDS011;13713;52.552;13.204;2022-08-14T06:49:36;20.73;;;18.63;;
25905;SDS011;13713;52.552;13.204;2022-08-14T06:52:01;20.63;;;18.52;;
25905;SDS011;13713;52.552;13.204;2022-08-14T06:54:27;21.63;;;19.52;;
25905;SDS011;13713;52.552;13.204;2022-08-14T06:56:53;20.67;;;18.58;;
25905;SDS011;13713;52.552;13.204;2022-08-14T06:59:19;21.58;;;19.27;;
25905;SDS011;13713;52.552;13.204;2022-08-14T07:01:44;20.77;;;18.58;;
25905;SDS011;13713;52.552;13.204;2022-08-14T07:04:28;21.80;;;19.60;;
25905;SDS011;13713;52.552;13.204;2022-08-14T07:07:13;20.77;;;18.67;;
25905;SDS011;13713;52.552;13.204;2022-08-14T07:09:38;21.45;;;19.15;;
25905;SDS011;13713;52.552;13.204;2022-08-14T07:12:04;20.92;;;18.73;;
25905;SDS011;13713;52.552;13.204;2022-08-14T07:14:30;21.13;;;18.83;;
25905;SDS011;13713;52.552;13.204;2022-08-14T07:16:56;20.40;;;18.35;;
25905;SDS011;13713;52.552;13.204;2022-08-14T07:19:21;21.17;;;18.98;;
25905;SDS011;13713;52.552;13.204;2022-08-14T07:21:47;22.08;;;19.83;;
25905;SDS011;13713;52.552;13.204;2022-08-14T07:24:13;21.35;;;19.15;;
25905;SDS011;13713;52.552;13.204;2022-08-14T07:26:39;21.67;;;19.42;;
25905;SDS011;13713;52.552;13.204;2022-08-14T07:29:05;21.98;;;19.67;;
25905;SDS011;13713;52.552;13.204;2022-08-14T07:31:30;21.75;;;19.45;;
25905;SDS011;13713;52.552;13.204;2022-08-14T07:33:56;21.02;;;18.90;;
25905;SDS011;13713;52.552;13.204;2022-08-14T07:36:22;22.48;;;20.17;;
25905;SDS011;13713;52.552;13.204;2022-08-14T07:38:49;20.95;;;18.65;;
25905;SDS011;13713;52.552;13.204;2022-08-14T07:41:15;21.60;;;19.40;;
25905;SDS011;13713;52.552;13.204;2022-08-14T07:43:41;21.08;;;18.88;;
25905;SDS011;13713;52.552;13.204;2022-08-14T07:46:08;21.60;;;19.48;;
25905;SDS011;13713;52.552;13.204;2022-08-14T07:48:39;22.08;;;19.88;;
25905;SDS011;13713;52.552;13.204;2022-08-14T07:51:07;22.05;;;19.63;;
25905;SDS011;13713;52.552;13.204;2022-08-14T07:53:34;21.67;;;19.48;;
25905;SDS011;13713;52.552;13.204;2022-08-14T07:56:00;21.42;;;19.23;;
25905;SDS011;13713;52.552;13.204;2022-08-14T07:58:26;22.08;;;19.77;;
25905;SDS011;13713;52.552;13.204;2022-08-14T08:00:55;22.00;;;19.52;;
25905;SDS011;13713;52.552;13.204;2022-08-14T08:03:22;22.33;;;20.02;;
25905;SDS011;13713;52.552;13.204;2022-08-14T08:05:49;22.45;;;20.15;;
25905;SDS011;13713;52.552;13.204;2022-08-14T08:08:15;21.77;;;19.48;;
25905;SDS011;13713;52.552;13.204;2022-08-14T08:10:41;22.35;;;20.15;;
25905;SDS011;13713;52.552;13.204;2022-08-14T08:13:09;21.70;;;19.40;;
25905;SDS011;13713;52.552;13.204;2022-08-14T08:15:49;22.27;;;19.98;;
25905;SDS011;13713;52.552;13.204;2022-08-14T08:18:21;23.30;;;20.80;;
25905;SDS011;13713;52.552;13.204;2022-08-14T08:20:52;22.23;;;19.92;;
25905;SDS011;13713;52.552;13.204;2022-08-14T08:25:45;21.98;;;19.67;;
25905;SDS011;13713;52.552;13.204;2022-08-14T08:28:14;22.65;;;20.35;;
25905;SDS011;13713;52.552;13.204;2022-08-14T08:30:52;23.17;;;20.88;;
25905;SDS011;13713;52.552;13.204;2022-08-14T08:33:21;23.25;;;20.88;;
25905;SDS011;13713;52.552;13.204;2022-08-14T08:35:49;23.05;;;20.65;;
25905;SDS011;13713;52.552;13.204;2022-08-14T08:38:15;22.73;;;20.33;;
25905;SDS011;13713;52.552;13.204;2022-08-14T08:40:44;22.20;;;20.00;;
25905;SDS011;13713;52.552;13.204;2022-08-14T08:45:57;22.58;;;20.17;;
25905;SDS011;13713;52.552;13.204;2022-08-14T08:48:43;21.92;;;19.63;;
25905;SDS011;13713;52.552;13.204;2022-08-14T08:51:27;22.35;;;20.05;;
25905;SDS011;13713;52.552;13.204;2022-08-14T08:53:57;21.88;;;19.55;;
25905;SDS011;13713;52.552;13.204;2022-08-14T08:59:20;22.40;;;20.20;;
25905;SDS011;13713;52.552;13.204;2022-08-14T09:04:26;23.45;;;20.90;;
25905;SDS011;13713;52.552;13.204;2022-08-14T09:06:54;23.23;;;20.88;;
25905;SDS011;13713;52.552;13.204;2022-08-14T09:09:24;23.65;;;21.15;;
25905;SDS011;13713;52.552;13.204;2022-08-14T09:11:52;22.00;;;19.80;;
25905;SDS011;13713;52.552;13.204;2022-08-14T09:14:22;22.20;;;19.92;;
25905;SDS011;13713;52.552;13.204;2022-08-14T09:16:54;22.75;;;20.40;;
25905;SDS011;13713;52.552;13.204;2022-08-14T09:19:20;24.58;;;22.05;;
25905;SDS011;13713;52.552;13.204;2022-08-14T09:21:47;22.95;;;20.65;;
25905;SDS011;13713;52.552;13.204;2022-08-14T09:24:13;23.60;;;21.10;;
25905;SDS011;13713;52.552;13.204;2022-08-14T09:26:39;23.33;;;20.85;;
25905;SDS011;13713;52.552;13.204;2022-08-14T09:29:07;23.45;;;20.77;;
25905;SDS011;13713;52.552;13.204;2022-08-14T09:31:34;23.55;;;21.15;;
25905;SDS011;13713;52.552;13.204;2022-08-14T09:42:27;24.67;;;22.08;;
25905;SDS011;13713;52.552;13.204;2022-08-14T09:45:18;23.80;;;21.23;;
25905;SDS011;13713;52.552;13.204;2022-08-14T09:47:48;24.05;;;21.55;;
25905;SDS011;13713;52.552;13.204;2022-08-14T09:50:27;25.48;;;22.77;;
25905;SDS011;13713;52.552;13.204;2022-08-14T09:55:27;24.52;;;22.00;;
25905;SDS011;13713;52.552;13.204;2022-08-14T09:58:07;24.23;;;21.73;;
25905;SDS011;13713;52.552;13.204;2022-08-14T10:00:56;23.75;;;21.27;;
25905;SDS011;13713;52.552;13.204;2022-08-14T10:03:28;24.23;;;21.83;;
25905;SDS011;13713;52.552;13.204;2022-08-14T10:06:04;24.60;;;21.95;;
25905;SDS011;13713;52.552;13.204;2022-08-14T10:08:43;24.52;;;22.02;;
25905;SDS011;13713;52.552;13.204;2022-08-14T10:13:45;23.35;;;20.95;;
25905;SDS011;13713;52.552;13.204;2022-08-14T10:16:12;24.48;;;21.92;;
25905;SDS011;13713;52.552;13.204;2022-08-14T10:18:38;24.35;;;21.85;;
25905;SDS011;13713;52.552;13.204;2022-08-14T10:21:06;23.40;;;21.00;;
25905;SDS011;13713;52.552;13.204;2022-08-14T10:23:44;25.35;;;22.75;;
25905;SDS011;13713;52.552;13.204;2022-08-14T10:26:14;25.02;;;22.42;;
25905;SDS011;13713;52.552;13.204;2022-08-14T10:28:46;23.85;;;21.35;;
25905;SDS011;13713;52.552;13.204;2022-08-14T10:31:16;24.00;;;21.50;;
25905;SDS011;13713;52.552;13.204;2022-08-14T10:36:45;24.50;;;22.00;;
25905;SDS011;13713;52.552;13.204;2022-08-14T10:39:15;23.38;;;20.98;;
25905;SDS011;13713;52.552;13.204;2022-08-14T10:41:58;23.45;;;20.95;;
25905;SDS011;13713;52.552;13.204;2022-08-14T10:44:33;23.33;;;20.95;;
25905;SDS011;13713;52.552;13.204;2022-08-14T10:47:02;24.33;;;21.83;;
25905;SDS011;13713;52.552;13.204;2022-08-14T10:49:38;23.55;;;21.15;;
25905;SDS011;13713;52.552;13.204;2022-08-14T10:52:21;23.27;;;20.88;;
25905;SDS011;13713;52.552;13.204;2022-08-14T10:54:49;22.80;;;20.27;;
25905;SDS011;13713;52.552;13.204;2022-08-14T10:57:22;21.77;;;19.58;;
25905;SDS011;13713;52.552;13.204;2022-08-14T11:05:08;22.58;;;20.27;;
25905;SDS011;13713;52.552;13.204;2022-08-14T11:07:37;22.77;;;20.38;;
25905;SDS011;13713;52.552;13.204;2022-08-14T11:10:06;22.23;;;19.85;;
25905;SDS011;13713;52.552;13.204;2022-08-14T11:12:44;22.50;;;20.17;;
25905;SDS011;13713;52.552;13.204;2022-08-14T11:15:26;23.02;;;20.63;;
25905;SDS011;13713;52.552;13.204;2022-08-14T11:17:52;22.92;;;20.52;;
25905;SDS011;13713;52.552;13.204;2022-08-14T11:20:21;23.13;;;20.63;;
25905;SDS011;13713;52.552;13.204;2022-08-14T11:22:52;22.20;;;19.95;;
25905;SDS011;13713;52.552;13.204;2022-08-14T11:25:23;22.73;;;19.70;;
25905;SDS011;13713;52.552;13.204;2022-08-14T11:27:52;22.00;;;19.80;;
25905;SDS011;13713;52.552;13.204;2022-08-14T11:30:20;23.33;;;20.92;;
25905;SDS011;13713;52.552;13.204;2022-08-14T11:32:48;23.05;;;20.55;;
25905;SDS011;13713;52.552;13.204;2022-08-14T11:35:19;22.17;;;19.88;;
25905;SDS011;13713;52.552;13.204;2022-08-14T11:40:18;21.48;;;19.23;;
25905;SDS011;13713;52.552;13.204;2022-08-14T11:42:46;22.05;;;19.75;;
25905;SDS011;13713;52.552;13.204;2022-08-14T11:45:12;22.15;;;19.85;;
25905;SDS011;13713;52.552;13.204;2022-08-14T11:47:39;20.83;;;18.73;;
25905;SDS011;13713;52.552;13.204;2022-08-14T11:50:18;21.38;;;19.02;;
25905;SDS011;13713;52.552;13.204;2022-08-14T11:52:47;23.05;;;20.55;;
25905;SDS011;13713;52.552;13.204;2022-08-14T11:55:14;21.80;;;19.60;;
25905;SDS011;13713;52.552;13.204;2022-08-14T11:57:43;21.83;;;19.63;;
25905;SDS011;13713;52.552;13.204;2022-08-14T12:00:12;22.60;;;20.30;;
25905;SDS011;13713;52.552;13.204;2022-08-14T12:05:27;22.13;;;19.83;;
25905;SDS011;13713;52.552;13.204;2022-08-14T12:07:55;22.83;;;20.45;;
25905;SDS011;13713;52.552;13.204;2022-08-14T12:10:22;21.73;;;19.42;;
25905;SDS011;13713;52.552;13.204;2022-08-14T12:12:47;23.33;;;21.02;;
25905;SDS011;13713;52.552;13.204;2022-08-14T12:15:27;23.55;;;21.02;;
25905;SDS011;13713;52.552;13.204;2022-08-14T12:17:56;22.10;;;19.80;;
25905;SDS011;13713;52.552;13.204;2022-08-14T12:20:29;21.80;;;19.60;;
25905;SDS011;13713;52.552;13.204;2022-08-14T12:22:56;22.02;;;19.70;;
25905;SDS011;13713;52.552;13.204;2022-08-14T12:25:24;22.73;;;20.40;;
25905;SDS011;13713;52.552;13.204;2022-08-14T12:27:51;20.80;;;18.70;;
25905;SDS011;13713;52.552;13.204;2022-08-14T12:30:26;22.23;;;19.92;;
25905;SDS011;13713;52.552;13.204;2022-08-14T12:32:56;22.25;;;19.95;;
25905;SDS011;13713;52.552;13.204;2022-08-14T12:35:23;21.55;;;19.35;;
25905;SDS011;13713;52.552;13.204;2022-08-14T12:38:00;21.73;;;19.52;;
25905;SDS011;13713;52.552;13.204;2022-08-14T12:40:28;22.05;;;19.85;;
25905;SDS011;13713;52.552;13.204;2022-08-14T12:43:02;20.63;;;18.50;;
25905;SDS011;13713;52.552;13.204;2022-08-14T12:45:32;21.58;;;19.35;;
25905;SDS011;13713;52.552;13.204;2022-08-14T12:47:59;22.67;;;20.13;;
25905;SDS011;13713;52.552;13.204;2022-08-14T12:50:36;22.50;;;20.20;;
25905;SDS011;13713;52.552;13.204;2022-08-14T12:53:03;22.73;;;20.42;;
25905;SDS011;13713;52.552;13.204;2022-08-14T12:55:29;22.13;;;19.80;;
25905;SDS011;13713;52.552;13.204;2022-08-14T12:57:58;21.58;;;19.38;;
25905;SDS011;13713;52.552;13.204;2022-08-14T13:00:24;23.40;;;21.05;;
25905;SDS011;13713;52.552;13.204;2022-08-14T13:02:51;22.85;;;20.45;;
25905;SDS011;13713;52.552;13.204;2022-08-14T13:05:26;22.13;;;19.90;;
25905;SDS011;13713;52.552;13.204;2022-08-14T13:07:54;23.58;;;20.02;;
25905;SDS011;13713;52.552;13.204;2022-08-14T13:10:21;22.83;;;19.95;;
25905;SDS011;13713;52.552;13.204;2022-08-14T13:12:53;23.02;;;20.63;;
25905;SDS011;13713;52.552;13.204;2022-08-14T13:15:21;20.60;;;18.50;;
25905;SDS011;13713;52.552;13.204;2022-08-14T13:17:48;21.52;;;19.33;;
25905;SDS011;13713;52.552;13.204;2022-08-14T13:20:16;23.10;;;20.80;;
25905;SDS011;13713;52.552;13.204;2022-08-14T13:22:46;22.73;;;20.40;;
25905;SDS011;13713;52.552;13.204;2022-08-14T13:25:16;23.85;;;21.38;;
25905;SDS011;13713;52.552;13.204;2022-08-14T13:27:49;22.48;;;20.17;;
25905;SDS011;13713;52.552;13.204;2022-08-14T13:30:22;21.98;;;19.73;;
25905;SDS011;13713;52.552;13.204;2022-08-14T13:32:49;21.75;;;19.55;;
25905;SDS011;13713;52.552;13.204;2022-08-14T13:35:19;22.85;;;20.45;;
25905;SDS011;13713;52.552;13.204;2022-08-14T13:37:46;22.40;;;20.10;;
25905;SDS011;13713;52.552;13.204;2022-08-14T13:40:14;23.02;;;20.63;;
25905;SDS011;13713;52.552;13.204;2022-08-14T13:42:45;22.40;;;20.08;;
25905;SDS011;13713;52.552;13.204;2022-08-14T13:45:12;22.98;;;20.63;;
25905;SDS011;13713;52.552;13.204;2022-08-14T13:47:39;22.38;;;20.00;;
25905;SDS011;13713;52.552;13.204;2022-08-14T13:50:07;22.55;;;19.58;;
25905;SDS011;13713;52.552;13.204;2022-08-14T13:52:42;20.85;;;18.70;;
25905;SDS011;13713;52.552;13.204;2022-08-14T13:55:21;21.80;;;19.60;;
25905;SDS011;13713;52.552;13.204;2022-08-14T13:57:52;23.02;;;19.92;;
25905;SDS011;13713;52.552;13.204;2022-08-14T14:00:24;22.95;;;20.55;;
25905;SDS011;13713;52.552;13.204;2022-08-14T14:02:49;21.98;;;19.77;;
25905;SDS011;13713;52.552;13.204;2022-08-14T14:05:16;22.77;;;20.42;;
25905;SDS011;13713;52.552;13.204;2022-08-14T14:07:49;22.20;;;20.00;;
25905;SDS011;13713;52.552;13.204;2022-08-14T14:10:16;22.38;;;20.08;;
25905;SDS011;13713;52.552;13.204;2022-08-14T14:12:45;21.80;;;19.50;;
25905;SDS011;13713;52.552;13.204;2022-08-14T14:15:15;22.65;;;20.30;;
25905;SDS011;13713;52.552;13.204;2022-08-14T14:17:43;23.00;;;20.55;;
25905;SDS011;13713;52.552;13.204;2022-08-14T14:20:12;22.00;;;19.80;;
25905;SDS011;13713;52.552;13.204;2022-08-14T14:22:41;22.23;;;19.95;;
25905;SDS011;13713;52.552;13.204;2022-08-14T14:25:09;21.85;;;19.45;;
25905;SDS011;13713;52.552;13.204;2022-08-14T14:27:41;21.77;;;19.57;;
25905;SDS011;13713;52.552;13.204;2022-08-14T14:30:10;21.55;;;19.35;;
25905;SDS011;13713;52.552;13.204;2022-08-14T14:32:37;22.45;;;20.05;;
25905;SDS011;13713;52.552;13.204;2022-08-14T14:35:11;21.00;;;18.87;;
25905;SDS011;13713;52.552;13.204;2022-08-14T14:37:39;21.98;;;19.70;;
25905;SDS011;13713;52.552;13.204;2022-08-14T14:40:06;22.40;;;19.73;;
25905;SDS011;13713;52.552;13.204;2022-08-14T14:42:33;20.98;;;18.88;;
25905;SDS011;13713;52.552;13.204;2022-08-14T14:45:01;21.00;;;18.90;;
25905;SDS011;13713;52.552;13.204;2022-08-14T14:47:42;21.42;;;19.25;;
25905;SDS011;13713;52.552;13.204;2022-08-14T14:50:09;21.45;;;19.25;;
25905;SDS011;13713;52.552;13.204;2022-08-14T14:52:37;20.58;;;18.48;;
25905;SDS011;13713;52.552;13.204;2022-08-14T14:55:04;23.23;;;20.92;;
25905;SDS011;13713;52.552;13.204;2022-08-14T14:57:31;21.58;;;19.33;;